createdAt,value
2018-08-10T00:00:41.457Z,999.23
2018-08-10T00:01:41.459Z,999.20
2018-08-10T00:02:41.465Z,999.22
2018-08-10T00:03:41.470Z,999.23
2018-08-10T00:04:41.479Z,999.24
2018-08-10T00:05:41.502Z,999.28
2018-08-10T00:06:41.485Z,999.25
2018-08-10T00:07:41.490Z,999.32
2018-08-10T00:08:41.502Z,999.30
2018-08-10T00:09:41.502Z,999.33
2018-08-10T00:10:41.507Z,999.34
2018-08-10T00:11:41.509Z,999.37
2018-08-10T00:12:42.171Z,999.44
2018-08-10T00:13:41.517Z,999.47
2018-08-10T00:14:41.524Z,999.50
2018-08-10T00:15:41.527Z,999.46
2018-08-10T00:16:41.530Z,999.49
2018-08-10T00:17:41.536Z,999.47
2018-08-10T00:18:41.542Z,999.48
2018-08-10T00:19:41.546Z,999.47
2018-08-10T00:20:41.555Z,999.51
2018-08-10T00:21:41.559Z,999.55
2018-08-10T00:22:41.560Z,999.55
2018-08-10T00:23:41.566Z,999.56
2018-08-10T00:24:41.570Z,999.59
2018-08-10T00:25:41.576Z,999.67
2018-08-10T00:26:41.579Z,999.63
2018-08-10T00:27:41.584Z,999.66
2018-08-10T00:28:41.590Z,999.67
2018-08-10T00:29:41.595Z,999.70
2018-08-10T00:30:41.601Z,999.78
2018-08-10T00:31:41.608Z,999.81
2018-08-10T00:32:41.608Z,999.85
2018-08-10T00:33:41.613Z,999.82
2018-08-10T00:34:41.618Z,999.83
2018-08-10T00:35:41.625Z,999.85
2018-08-10T00:36:41.628Z,999.85
2018-08-10T00:37:41.633Z,999.89
2018-08-10T00:38:41.637Z,999.86
2018-08-10T00:39:41.653Z,999.85
2018-08-10T00:40:41.650Z,999.88
2018-08-10T00:41:41.653Z,999.94
2018-08-10T00:42:41.659Z,999.90
2018-08-10T00:43:42.636Z,999.98
2018-08-10T00:44:41.674Z,999.94
2018-08-10T00:45:41.671Z,999.97
2018-08-10T00:46:41.676Z,1000.01
2018-08-10T00:47:41.695Z,1000.02
2018-08-10T00:48:41.690Z,999.99
2018-08-10T00:49:41.816Z,1000.00
2018-08-10T00:50:41.808Z,1000.00
2018-08-10T00:51:41.853Z,1000.00
2018-08-10T00:52:41.809Z,1000.02
2018-08-10T00:53:41.816Z,1000.04
2018-08-10T00:54:41.926Z,1000.06
2018-08-10T00:55:41.823Z,1000.06
2018-08-10T00:56:41.860Z,1000.05
2018-08-10T00:57:41.841Z,1000.03
2018-08-10T00:58:41.792Z,1000.03
2018-08-10T00:59:41.784Z,1000.08
2018-08-10T01:00:41.880Z,1000.08
2018-08-10T01:01:41.782Z,1000.13
2018-08-10T01:02:41.912Z,1000.13
2018-08-10T01:03:41.841Z,1000.15
2018-08-10T01:04:41.763Z,1000.23
2018-08-10T01:05:41.765Z,1000.28
2018-08-10T01:06:41.773Z,1000.30
2018-08-10T01:07:41.776Z,1000.33
2018-08-10T01:08:41.779Z,1000.34
2018-08-10T01:09:41.785Z,1000.36
2018-08-10T01:10:41.790Z,1000.34
2018-08-10T01:11:41.801Z,1000.37
2018-08-10T01:12:41.798Z,1000.45
2018-08-10T01:13:41.805Z,1000.47
2018-08-10T01:14:41.810Z,1000.50
2018-08-10T01:15:41.818Z,1000.48
2018-08-10T01:16:41.836Z,1000.51
2018-08-10T01:17:41.821Z,1000.51
2018-08-10T01:18:41.829Z,1000.46
2018-08-10T01:19:41.836Z,1000.39
2018-08-10T01:20:41.836Z,1000.41
2018-08-10T01:21:41.843Z,1000.42
2018-08-10T01:22:41.844Z,1000.44
2018-08-10T01:23:41.852Z,1000.45
2018-08-10T01:24:41.857Z,1000.45
2018-08-10T01:25:41.858Z,1000.41
2018-08-10T01:26:41.864Z,1000.42
2018-08-10T01:27:41.869Z,1000.41
2018-08-10T01:28:41.911Z,1000.39
2018-08-10T01:29:41.877Z,1000.41
2018-08-10T01:30:41.883Z,1000.40
2018-08-10T01:31:41.891Z,1000.39
2018-08-10T01:32:41.889Z,1000.40
2018-08-10T01:33:41.899Z,1000.40
2018-08-10T01:34:41.904Z,1000.45
2018-08-10T01:35:41.904Z,1000.42
2018-08-10T01:36:41.909Z,1000.41
2018-08-10T01:37:41.923Z,1000.44
2018-08-10T01:38:41.922Z,1000.43
2018-08-10T01:39:41.924Z,1000.42
2018-08-10T01:40:41.939Z,1000.45
2018-08-10T01:41:41.932Z,1000.46
2018-08-10T01:42:41.936Z,1000.48
2018-08-10T01:43:41.941Z,1000.48
2018-08-10T01:44:41.947Z,1000.50
2018-08-10T01:45:41.951Z,1000.48
2018-08-10T01:46:41.956Z,1000.47
2018-08-10T01:47:41.971Z,1000.49
2018-08-10T01:48:41.961Z,1000.53
2018-08-10T01:49:41.966Z,1000.55
2018-08-10T01:50:41.971Z,1000.57
2018-08-10T01:51:41.980Z,1000.60
2018-08-10T01:52:41.979Z,1000.58
2018-08-10T01:53:41.986Z,1000.60
2018-08-10T01:54:43.644Z,1000.65
2018-08-10T01:55:41.994Z,1000.62
2018-08-10T01:56:42.003Z,1000.65
2018-08-10T01:57:42.006Z,1000.66
2018-08-10T01:58:42.020Z,1000.63
2018-08-10T01:59:42.026Z,1000.64
2018-08-10T02:00:42.014Z,1000.69
2018-08-10T02:01:42.023Z,1000.70
2018-08-10T02:02:42.026Z,1000.71
2018-08-10T02:03:42.031Z,1000.75
2018-08-10T02:04:42.031Z,1000.74
2018-08-10T02:05:42.039Z,1000.74
2018-08-10T02:06:42.042Z,1000.77
2018-08-10T02:07:42.047Z,1000.78
2018-08-10T02:08:42.050Z,1000.78
2018-08-10T02:09:42.056Z,1000.77
2018-08-10T02:10:42.056Z,1000.78
2018-08-10T02:11:42.062Z,1000.78
2018-08-10T02:12:42.066Z,1000.73
2018-08-10T02:13:42.072Z,1000.75
2018-08-10T02:14:42.075Z,1000.79
2018-08-10T02:15:42.079Z,1000.80
2018-08-10T02:16:42.082Z,1000.76
2018-08-10T02:17:42.118Z,1000.81
2018-08-10T02:18:42.091Z,1000.79
2018-08-10T02:19:42.098Z,1000.77
2018-08-10T02:20:42.098Z,1000.76
2018-08-10T02:21:42.104Z,1000.69
2018-08-10T02:22:42.107Z,1000.72
2018-08-10T02:23:42.117Z,1000.72
2018-08-10T02:24:42.139Z,1000.70
2018-08-10T02:25:42.118Z,1000.73
2018-08-10T02:26:42.122Z,1000.71
2018-08-10T02:27:42.130Z,1000.64
2018-08-10T02:28:42.146Z,1000.70
2018-08-10T02:29:42.135Z,1000.66
2018-08-10T02:30:42.140Z,1000.70
2018-08-10T02:31:42.146Z,1000.69
2018-08-10T02:32:42.200Z,1000.63
2018-08-10T02:33:42.151Z,1000.68
2018-08-10T02:34:42.161Z,1000.69
2018-08-10T02:35:42.158Z,1000.71
2018-08-10T02:36:42.163Z,1000.73
2018-08-10T02:37:42.165Z,1000.71
2018-08-10T02:38:42.174Z,1000.70
2018-08-10T02:39:42.176Z,1000.72
2018-08-10T02:40:42.185Z,1000.73
2018-08-10T02:41:42.185Z,1000.77
2018-08-10T02:42:42.187Z,1000.83
2018-08-10T02:43:42.201Z,1000.88
2018-08-10T02:44:42.193Z,1000.89
2018-08-10T02:45:42.196Z,1000.95
2018-08-10T02:46:42.388Z,1000.96
2018-08-10T02:47:42.205Z,1000.95
2018-08-10T02:48:42.210Z,1000.97
2018-08-10T02:49:42.225Z,1000.95
2018-08-10T02:50:42.217Z,1000.93
2018-08-10T02:51:42.223Z,1000.96
2018-08-10T02:52:42.226Z,1000.98
2018-08-10T02:53:42.229Z,1001.04
2018-08-10T02:54:42.239Z,1001.04
2018-08-10T02:55:42.239Z,1001.07
2018-08-10T02:56:42.239Z,1001.01
2018-08-10T02:57:42.244Z,1001.03
2018-08-10T02:58:42.248Z,1001.02
2018-08-10T02:59:42.251Z,1001.08
2018-08-10T03:00:42.258Z,1001.07
2018-08-10T03:01:42.259Z,1001.08
2018-08-10T03:02:42.263Z,1001.07
2018-08-10T03:03:42.267Z,1001.08
2018-08-10T03:04:42.272Z,1001.11
2018-08-10T03:05:42.280Z,1001.13
2018-08-10T03:06:42.278Z,1001.12
2018-08-10T03:07:42.284Z,1001.12
2018-08-10T03:08:42.285Z,1001.15
2018-08-10T03:09:42.292Z,1001.18
2018-08-10T03:10:42.297Z,1001.13
2018-08-10T03:11:42.297Z,1001.16
2018-08-10T03:12:42.301Z,1001.15
2018-08-10T03:13:42.306Z,1001.15
2018-08-10T03:14:42.312Z,1001.18
2018-08-10T03:15:42.324Z,1001.23
2018-08-10T03:16:42.321Z,1001.23
2018-08-10T03:17:42.837Z,1001.24
2018-08-10T03:18:42.324Z,1001.25
2018-08-10T03:19:42.328Z,1001.29
2018-08-10T03:20:42.331Z,1001.31
2018-08-10T03:21:42.334Z,1001.32
2018-08-10T03:22:42.340Z,1001.38
2018-08-10T03:23:42.353Z,1001.35
2018-08-10T03:24:42.348Z,1001.35
2018-08-10T03:25:42.355Z,1001.32
2018-08-10T03:26:42.358Z,1001.35
2018-08-10T03:27:42.359Z,1001.28
2018-08-10T03:28:42.363Z,1001.30
2018-08-10T03:29:42.367Z,1001.25
2018-08-10T03:30:42.370Z,1001.27
2018-08-10T03:31:42.373Z,1001.22
2018-08-10T03:32:42.376Z,1001.21
2018-08-10T03:33:42.382Z,1001.18
2018-08-10T03:34:42.384Z,1001.19
2018-08-10T03:35:42.388Z,1001.17
2018-08-10T03:36:42.392Z,1001.24
2018-08-10T03:37:42.394Z,1001.30
2018-08-10T03:38:42.399Z,1001.35
2018-08-10T03:39:42.401Z,1001.40
2018-08-10T03:40:42.405Z,1001.46
2018-08-10T03:41:42.413Z,1001.50
2018-08-10T03:42:42.418Z,1001.47
2018-08-10T03:43:42.417Z,1001.48
2018-08-10T03:44:42.419Z,1001.53
2018-08-10T03:45:42.423Z,1001.56
2018-08-10T03:46:42.427Z,1001.62
2018-08-10T03:47:42.432Z,1001.67
2018-08-10T03:48:43.254Z,1001.71
2018-08-10T03:49:42.493Z,1001.75
2018-08-10T03:50:42.444Z,1001.77
2018-08-10T03:51:42.446Z,1001.75
2018-08-10T03:52:42.456Z,1001.77
2018-08-10T03:53:42.452Z,1001.77
2018-08-10T03:54:42.459Z,1001.77
2018-08-10T03:55:42.462Z,1001.79
2018-08-10T03:56:42.465Z,1001.84
2018-08-10T03:57:42.471Z,1001.84
2018-08-10T03:58:42.471Z,1001.89
2018-08-10T03:59:42.477Z,1001.91
2018-08-10T04:00:42.524Z,1001.90
2018-08-10T04:01:42.482Z,1001.93
2018-08-10T04:02:42.486Z,1001.96
2018-08-10T04:03:42.493Z,1002.02
2018-08-10T04:04:42.500Z,1002.05
2018-08-10T04:05:42.497Z,1002.07
2018-08-10T04:06:42.501Z,1002.05
2018-08-10T04:07:42.505Z,1002.08
2018-08-10T04:08:42.509Z,1002.08
2018-08-10T04:09:42.512Z,1002.15
2018-08-10T04:10:42.518Z,1002.20
2018-08-10T04:11:42.520Z,1002.13
2018-08-10T04:12:42.524Z,1002.09
2018-08-10T04:13:42.528Z,1002.10
2018-08-10T04:14:42.530Z,1002.23
2018-08-10T04:15:42.533Z,1002.21
2018-08-10T04:16:42.541Z,1002.23
2018-08-10T04:17:42.540Z,1002.23
2018-08-10T04:18:42.544Z,1002.22
2018-08-10T04:19:42.549Z,1002.19
2018-08-10T04:20:42.552Z,1002.22
2018-08-10T04:21:42.556Z,1002.24
2018-08-10T04:22:42.561Z,1002.25
2018-08-10T04:23:42.564Z,1002.29
2018-08-10T04:24:42.581Z,1002.32
2018-08-10T04:25:42.570Z,1002.34
2018-08-10T04:26:42.575Z,1002.35
2018-08-10T04:27:42.577Z,1002.38
2018-08-10T04:28:42.582Z,1002.34
2018-08-10T04:29:42.673Z,1002.38
2018-08-10T04:30:42.590Z,1002.38
2018-08-10T04:31:42.594Z,1002.40
2018-08-10T04:32:42.597Z,1002.43
2018-08-10T04:33:42.599Z,1002.50
2018-08-10T04:34:42.605Z,1002.56
2018-08-10T04:35:42.609Z,1002.59
2018-08-10T04:36:42.609Z,1002.59
2018-08-10T04:37:42.615Z,1002.64
2018-08-10T04:38:42.618Z,1002.63
2018-08-10T04:39:42.621Z,1002.68
2018-08-10T04:40:44.517Z,1002.73
2018-08-10T04:41:42.631Z,1002.68
2018-08-10T04:42:42.635Z,1002.73
2018-08-10T04:43:42.635Z,1002.74
2018-08-10T04:44:42.639Z,1002.72
2018-08-10T04:45:42.641Z,1002.77
2018-08-10T04:46:42.695Z,1002.80
2018-08-10T04:47:42.649Z,1002.78
2018-08-10T04:48:42.652Z,1002.82
2018-08-10T04:49:42.655Z,1002.89
2018-08-10T04:50:42.662Z,1002.86
2018-08-10T04:51:42.666Z,1002.91
2018-08-10T04:52:42.668Z,1002.92
2018-08-10T04:53:42.670Z,1002.93
2018-08-10T04:54:42.675Z,1002.93
2018-08-10T04:55:42.678Z,1002.97
2018-08-10T04:56:42.681Z,1002.94
2018-08-10T04:57:42.685Z,1002.99
2018-08-10T04:58:42.690Z,1003.01
2018-08-10T04:59:42.695Z,1003.06
2018-08-10T05:00:42.695Z,1003.07
2018-08-10T05:01:42.700Z,1003.09
2018-08-10T05:02:42.707Z,1003.10
2018-08-10T05:03:42.751Z,1003.17
2018-08-10T05:04:42.710Z,1003.21
2018-08-10T05:05:42.713Z,1003.24
2018-08-10T05:06:42.717Z,1003.26
2018-08-10T05:07:42.726Z,1003.27
2018-08-10T05:08:42.749Z,1003.33
2018-08-10T05:09:42.731Z,1003.33
2018-08-10T05:10:42.732Z,1003.41
2018-08-10T05:11:42.736Z,1003.45
2018-08-10T05:12:42.740Z,1003.48
2018-08-10T05:13:42.743Z,1003.50
2018-08-10T05:14:42.754Z,1003.55
2018-08-10T05:15:42.784Z,1003.54
2018-08-10T05:16:42.759Z,1003.58
2018-08-10T05:17:42.758Z,1003.59
2018-08-10T05:18:42.763Z,1003.59
2018-08-10T05:19:42.767Z,1003.68
2018-08-10T05:20:42.768Z,1003.64
2018-08-10T05:21:42.774Z,1003.69
2018-08-10T05:22:42.776Z,1003.65
2018-08-10T05:23:42.780Z,1003.71
2018-08-10T05:24:42.785Z,1003.77
2018-08-10T05:25:42.787Z,1003.77
2018-08-10T05:26:42.807Z,1003.77
2018-08-10T05:27:42.800Z,1003.86
2018-08-10T05:28:42.842Z,1003.84
2018-08-10T05:29:42.910Z,1003.83
2018-08-10T05:30:43.082Z,1003.86
2018-08-10T05:31:42.821Z,1003.86
2018-08-10T05:32:42.813Z,1003.89
2018-08-10T05:33:42.848Z,1003.90
2018-08-10T05:34:42.829Z,1003.91
2018-08-10T05:35:42.833Z,1003.96
2018-08-10T05:36:42.833Z,1003.98
2018-08-10T05:37:42.838Z,1003.97
2018-08-10T05:38:42.835Z,1004.01
2018-08-10T05:39:42.839Z,1004.02
2018-08-10T05:40:42.857Z,1004.10
2018-08-10T05:41:42.854Z,1004.11
2018-08-10T05:42:42.849Z,1004.14
2018-08-10T05:43:42.986Z,1004.14
2018-08-10T05:44:42.866Z,1004.16
2018-08-10T05:45:42.884Z,1004.19
2018-08-10T05:46:42.889Z,1004.14
2018-08-10T05:47:42.902Z,1004.25
2018-08-10T05:48:42.891Z,1004.23
2018-08-10T05:49:42.899Z,1004.19
2018-08-10T05:50:42.894Z,1004.22
2018-08-10T05:51:43.013Z,1004.24
2018-08-10T05:52:42.896Z,1004.24
2018-08-10T05:53:43.139Z,1004.32
2018-08-10T05:54:43.070Z,1004.32
2018-08-10T05:55:42.895Z,1004.34
2018-08-10T05:56:42.919Z,1004.38
2018-08-10T05:57:42.938Z,1004.39
2018-08-10T05:58:42.917Z,1004.41
2018-08-10T05:59:42.909Z,1004.47
2018-08-10T06:00:42.956Z,1004.47
2018-08-10T06:01:42.915Z,1004.49
2018-08-10T06:02:42.932Z,1004.48
2018-08-10T06:03:43.006Z,1004.43
2018-08-10T06:04:42.925Z,1004.47
2018-08-10T06:05:42.929Z,1004.41
2018-08-10T06:06:42.935Z,1004.48
2018-08-10T06:07:42.937Z,1004.46
2018-08-10T06:08:42.953Z,1004.47
2018-08-10T06:09:42.952Z,1004.46
2018-08-10T06:10:42.965Z,1004.47
2018-08-10T06:11:42.953Z,1004.49
2018-08-10T06:12:42.954Z,1004.53
2018-08-10T06:13:42.958Z,1004.53
2018-08-10T06:14:43.181Z,1004.54
2018-08-10T06:15:42.965Z,1004.55
2018-08-10T06:16:42.975Z,1004.53
2018-08-10T06:17:42.982Z,1004.51
2018-08-10T06:18:43.001Z,1004.49
2018-08-10T06:19:42.980Z,1004.52
2018-08-10T06:20:42.985Z,1004.56
2018-08-10T06:21:43.088Z,1004.55
2018-08-10T06:22:43.439Z,1004.55
2018-08-10T06:23:42.993Z,1004.58
2018-08-10T06:24:43.003Z,1004.63
2018-08-10T06:25:43.002Z,1004.58
2018-08-10T06:26:43.005Z,1004.59
2018-08-10T06:27:43.067Z,1004.62
2018-08-10T06:28:43.009Z,1004.71
2018-08-10T06:29:43.013Z,1004.64
2018-08-10T06:30:43.018Z,1004.72
2018-08-10T06:31:43.025Z,1004.77
2018-08-10T06:32:43.026Z,1004.72
2018-08-10T06:33:43.090Z,1004.76
2018-08-10T06:34:43.036Z,1004.84
2018-08-10T06:35:43.061Z,1004.86
2018-08-10T06:36:43.042Z,1004.87
2018-08-10T06:37:43.043Z,1004.89
2018-08-10T06:38:43.047Z,1004.94
2018-08-10T06:39:43.054Z,1004.95
2018-08-10T06:40:43.054Z,1004.94
2018-08-10T06:41:43.059Z,1004.96
2018-08-10T06:42:43.060Z,1004.94
2018-08-10T06:43:43.065Z,1004.99
2018-08-10T06:44:43.080Z,1005.04
2018-08-10T06:45:43.074Z,1005.00
2018-08-10T06:46:43.075Z,1005.04
2018-08-10T06:47:43.081Z,1005.06
2018-08-10T06:48:43.082Z,1005.12
2018-08-10T06:49:43.092Z,1005.12
2018-08-10T06:50:43.095Z,1005.18
2018-08-10T06:51:43.109Z,1005.13
2018-08-10T06:52:43.108Z,1005.20
2018-08-10T06:53:43.855Z,1005.21
2018-08-10T06:54:43.105Z,1005.26
2018-08-10T06:55:43.142Z,1005.25
2018-08-10T06:56:43.117Z,1005.23
2018-08-10T06:57:43.115Z,1005.23
2018-08-10T06:58:43.119Z,1005.33
2018-08-10T06:59:43.124Z,1005.25
2018-08-10T07:00:43.209Z,1005.37
2018-08-10T07:01:43.132Z,1005.22
2018-08-10T07:02:43.132Z,1005.29
2018-08-10T07:03:43.139Z,1005.30
2018-08-10T07:04:43.141Z,1005.29
2018-08-10T07:05:43.145Z,1005.32
2018-08-10T07:06:43.157Z,1005.32
2018-08-10T07:07:43.153Z,1005.37
2018-08-10T07:08:43.163Z,1005.32
2018-08-10T07:09:43.160Z,1005.44
2018-08-10T07:10:43.163Z,1005.43
2018-08-10T07:11:43.166Z,1005.38
2018-08-10T07:12:43.170Z,1005.41
2018-08-10T07:13:43.321Z,1005.50
2018-08-10T07:14:43.178Z,1005.41
2018-08-10T07:15:43.181Z,1005.49
2018-08-10T07:16:43.193Z,1005.46
2018-08-10T07:17:43.197Z,1005.41
2018-08-10T07:18:43.193Z,1005.48
2018-08-10T07:19:43.226Z,1005.47
2018-08-10T07:20:43.417Z,1005.45
2018-08-10T07:21:43.202Z,1005.51
2018-08-10T07:22:43.210Z,1005.52
2018-08-10T07:23:43.222Z,1005.53
2018-08-10T07:24:43.214Z,1005.63
2018-08-10T07:25:43.217Z,1005.55
2018-08-10T07:26:43.222Z,1005.58
2018-08-10T07:27:43.229Z,1005.56
2018-08-10T07:28:43.231Z,1005.56
2018-08-10T07:29:43.237Z,1005.54
2018-08-10T07:30:43.239Z,1005.56
2018-08-10T07:31:43.250Z,1005.58
2018-08-10T07:32:43.244Z,1005.59
2018-08-10T07:33:43.249Z,1005.66
2018-08-10T07:34:43.254Z,1005.67
2018-08-10T07:35:43.263Z,1005.69
2018-08-10T07:36:43.261Z,1005.70
2018-08-10T07:37:43.261Z,1005.68
2018-08-10T07:38:43.267Z,1005.76
2018-08-10T07:39:43.269Z,1005.83
2018-08-10T07:40:43.275Z,1005.81
2018-08-10T07:41:43.276Z,1005.76
2018-08-10T07:42:43.282Z,1005.81
2018-08-10T07:43:43.301Z,1005.79
2018-08-10T07:44:43.287Z,1005.82
2018-08-10T07:45:43.294Z,1005.84
2018-08-10T07:46:43.310Z,1005.81
2018-08-10T07:47:43.304Z,1005.86
2018-08-10T07:48:43.303Z,1005.89
2018-08-10T07:49:43.310Z,1006.03
2018-08-10T07:50:43.311Z,1005.91
2018-08-10T07:51:43.340Z,1005.96
2018-08-10T07:52:43.637Z,1005.99
2018-08-10T07:53:43.324Z,1006.02
2018-08-10T07:54:43.326Z,1005.96
2018-08-10T07:55:43.331Z,1006.02
2018-08-10T07:56:43.337Z,1006.04
2018-08-10T07:57:43.338Z,1006.05
2018-08-10T07:58:43.342Z,1006.07
2018-08-10T07:59:43.349Z,1006.13
2018-08-10T08:00:43.352Z,1006.11
2018-08-10T08:01:43.356Z,1006.11
2018-08-10T08:02:43.383Z,1006.14
2018-08-10T08:03:43.378Z,1006.11
2018-08-10T08:04:43.554Z,1006.18
2018-08-10T08:05:43.381Z,1006.20
2018-08-10T08:06:43.375Z,1006.18
2018-08-10T08:07:43.378Z,1006.15
2018-08-10T08:08:43.382Z,1006.24
2018-08-10T08:09:43.889Z,1006.26
2018-08-10T08:10:43.469Z,1006.27
2018-08-10T08:11:43.394Z,1006.27
2018-08-10T08:12:43.442Z,1006.36
2018-08-10T08:13:43.459Z,1006.33
2018-08-10T08:14:43.402Z,1006.35
2018-08-10T08:15:43.428Z,1006.44
2018-08-10T08:16:43.412Z,1006.35
2018-08-10T08:17:43.454Z,1006.39
2018-08-10T08:18:43.538Z,1006.36
2018-08-10T08:19:43.462Z,1006.31
2018-08-10T08:20:43.563Z,1006.34
2018-08-10T08:21:43.436Z,1006.40
2018-08-10T08:22:43.465Z,1006.36
2018-08-10T08:23:43.439Z,1006.42
2018-08-10T08:24:43.440Z,1006.40
2018-08-10T08:25:43.442Z,1006.39
2018-08-10T08:26:43.448Z,1006.45
2018-08-10T08:27:43.455Z,1006.42
2018-08-10T08:28:43.453Z,1006.50
2018-08-10T08:29:43.568Z,1006.50
2018-08-10T08:30:43.513Z,1006.49
2018-08-10T08:31:43.509Z,1006.53
2018-08-10T08:32:43.552Z,1006.52
2018-08-10T08:33:43.470Z,1006.55
2018-08-10T08:34:43.537Z,1006.58
2018-08-10T08:35:43.481Z,1006.61
2018-08-10T08:36:43.483Z,1006.56
2018-08-10T08:37:43.485Z,1006.52
2018-08-10T08:38:43.694Z,1006.57
2018-08-10T08:39:43.517Z,1006.61
2018-08-10T08:40:43.494Z,1006.58
2018-08-10T08:41:43.500Z,1006.54
2018-08-10T08:42:43.506Z,1006.60
2018-08-10T08:43:43.511Z,1006.59
2018-08-10T08:44:43.511Z,1006.57
2018-08-10T08:45:43.669Z,1006.54
2018-08-10T08:46:43.620Z,1006.53
2018-08-10T08:47:43.522Z,1006.49
2018-08-10T08:48:43.528Z,1006.55
2018-08-10T08:49:44.240Z,1006.49
2018-08-10T08:50:43.532Z,1006.54
2018-08-10T08:51:43.538Z,1006.54
2018-08-10T08:52:43.540Z,1006.54
2018-08-10T08:53:43.556Z,1006.52
2018-08-10T08:54:43.548Z,1006.51
2018-08-10T08:55:43.553Z,1006.49
2018-08-10T08:56:43.845Z,1006.50
2018-08-10T08:57:43.562Z,1006.45
2018-08-10T08:58:43.568Z,1006.58
2018-08-10T08:59:43.568Z,1006.47
2018-08-10T09:00:43.573Z,1006.53
2018-08-10T09:01:43.574Z,1006.50
2018-08-10T09:02:43.580Z,1006.50
2018-08-10T09:03:43.612Z,1006.51
2018-08-10T09:04:43.593Z,1006.49
2018-08-10T09:05:43.596Z,1006.37
2018-08-10T09:06:44.140Z,1006.37
2018-08-10T09:07:50.169Z,1006.37
2018-08-10T09:08:43.611Z,1006.30
2018-08-10T09:09:43.620Z,1006.38
2018-08-10T09:10:43.655Z,1006.41
2018-08-10T09:11:43.626Z,1006.39
2018-08-10T09:12:43.703Z,1006.41
2018-08-10T09:13:43.653Z,1006.37
2018-08-10T09:14:43.654Z,1006.26
2018-08-10T09:15:43.647Z,1006.31
2018-08-10T09:16:43.654Z,1006.32
2018-08-10T09:17:43.748Z,1006.35
2018-08-10T09:18:43.669Z,1006.33
2018-08-10T09:19:43.667Z,1006.36
2018-08-10T09:20:43.676Z,1006.35
2018-08-10T09:21:43.680Z,1006.37
2018-08-10T09:22:43.723Z,1006.35
2018-08-10T09:23:43.693Z,1006.37
2018-08-10T09:24:43.697Z,1006.32
2018-08-10T09:25:43.717Z,1006.30
2018-08-10T09:26:44.660Z,1006.28
2018-08-10T09:27:44.368Z,1006.30
2018-08-10T09:28:43.722Z,1006.31
2018-08-10T09:29:43.730Z,1006.26
2018-08-10T09:30:43.744Z,1006.27
2018-08-10T09:31:43.744Z,1006.24
2018-08-10T09:32:43.754Z,1006.35
2018-08-10T09:33:43.759Z,1006.31
2018-08-10T09:34:43.767Z,1006.24
2018-08-10T09:35:43.774Z,1006.34
2018-08-10T09:36:43.782Z,1006.33
2018-08-10T09:37:43.789Z,1006.27
2018-08-10T09:38:43.813Z,1006.29
2018-08-10T09:39:43.806Z,1006.28
2018-08-10T09:40:43.816Z,1006.23
2018-08-10T09:41:43.828Z,1006.28
2018-08-10T09:42:44.022Z,1006.22
2018-08-10T09:43:43.839Z,1006.22
2018-08-10T09:44:43.841Z,1006.26
2018-08-10T09:45:43.909Z,1006.27
2018-08-10T09:46:43.859Z,1006.25
2018-08-10T09:47:43.864Z,1006.25
2018-08-10T09:48:43.869Z,1006.24
2018-08-10T09:49:43.878Z,1006.26
2018-08-10T09:50:43.878Z,1006.21
2018-08-10T09:51:43.902Z,1006.16
2018-08-10T09:52:43.891Z,1006.15
2018-08-10T09:53:43.904Z,1006.22
2018-08-10T09:54:43.950Z,1006.20
2018-08-10T09:55:43.910Z,1006.20
2018-08-10T09:56:43.914Z,1006.25
2018-08-10T09:57:43.919Z,1006.19
2018-08-10T09:58:44.840Z,1006.21
2018-08-10T09:59:43.941Z,1006.21
2018-08-10T10:00:43.941Z,1006.22
2018-08-10T10:01:43.944Z,1006.25
2018-08-10T10:02:43.952Z,1006.17
2018-08-10T10:03:43.971Z,1006.17
2018-08-10T10:04:43.956Z,1006.19
2018-08-10T10:05:43.964Z,1006.20
2018-08-10T10:06:43.972Z,1006.18
2018-08-10T10:07:44.650Z,1006.14
2018-08-10T10:08:43.977Z,1006.19
2018-08-10T10:09:43.986Z,1006.21
2018-08-10T10:10:43.991Z,1006.13
2018-08-10T10:11:43.993Z,1006.19
2018-08-10T10:12:44.000Z,1006.11
2018-08-10T10:13:44.004Z,1006.12
2018-08-10T10:14:44.652Z,1006.15
2018-08-10T10:15:44.022Z,1006.18
2018-08-10T10:16:44.019Z,1006.13
2018-08-10T10:17:44.029Z,1006.14
2018-08-10T10:18:44.027Z,1006.16
2018-08-10T10:19:44.097Z,1006.09
2018-08-10T10:20:44.040Z,1006.13
2018-08-10T10:21:44.043Z,1006.13
2018-08-10T10:22:44.124Z,1006.12
2018-08-10T10:23:44.055Z,1006.13
2018-08-10T10:24:44.060Z,1006.18
2018-08-10T10:25:44.063Z,1006.07
2018-08-10T10:26:44.068Z,1006.11
2018-08-10T10:27:44.072Z,1006.16
2018-08-10T10:28:44.238Z,1006.18
2018-08-10T10:29:44.082Z,1006.16
2018-08-10T10:30:44.086Z,1006.14
2018-08-10T10:31:44.092Z,1006.11
2018-08-10T10:32:44.109Z,1006.10
2018-08-10T10:33:44.103Z,1006.03
2018-08-10T10:34:44.111Z,1006.05
2018-08-10T10:35:44.113Z,1006.02
2018-08-10T10:36:44.117Z,1006.15
2018-08-10T10:37:44.122Z,1006.20
2018-08-10T10:38:44.132Z,1006.13
2018-08-10T10:39:44.173Z,1006.20
2018-08-10T10:40:44.166Z,1006.12
2018-08-10T10:41:44.165Z,1006.14
2018-08-10T10:42:44.163Z,1006.13
2018-08-10T10:43:44.182Z,1006.14
2018-08-10T10:44:44.173Z,1006.17
2018-08-10T10:45:44.176Z,1006.11
2018-08-10T10:46:44.183Z,1006.13
2018-08-10T10:47:44.192Z,1006.15
2018-08-10T10:48:44.200Z,1006.15
2018-08-10T10:49:44.210Z,1006.11
2018-08-10T10:50:44.240Z,1006.02
2018-08-10T10:51:44.228Z,1006.09
2018-08-10T10:52:44.243Z,1006.07
2018-08-10T10:53:44.379Z,1006.03
2018-08-10T10:54:44.258Z,1006.03
2018-08-10T10:55:44.274Z,1006.05
2018-08-10T10:56:44.470Z,1006.03
2018-08-10T10:57:44.293Z,1006.08
2018-08-10T10:58:44.304Z,1006.12
2018-08-10T10:59:44.316Z,1006.11
2018-08-10T11:00:44.329Z,1006.11
2018-08-10T11:01:44.417Z,1006.08
2018-08-10T11:02:44.353Z,1006.00
2018-08-10T11:03:44.366Z,1006.04
2018-08-10T11:04:44.376Z,1006.10
2018-08-10T11:05:44.397Z,1006.04
2018-08-10T11:06:44.405Z,1005.99
2018-08-10T11:07:44.416Z,1005.99
2018-08-10T11:08:44.428Z,1006.10
2018-08-10T11:09:44.443Z,1006.08
2018-08-10T11:10:44.456Z,1006.11
2018-08-10T11:11:44.469Z,1006.10
2018-08-10T11:12:44.481Z,1006.03
2018-08-10T11:13:44.495Z,1006.13
2018-08-10T11:14:44.507Z,1006.09
2018-08-10T11:15:44.520Z,1006.02
2018-08-10T11:16:44.536Z,1006.04
2018-08-10T11:17:44.553Z,1006.04
2018-08-10T11:18:44.562Z,1006.02
2018-08-10T11:19:44.576Z,1005.97
2018-08-10T11:20:44.662Z,1005.99
2018-08-10T11:21:44.603Z,1005.94
2018-08-10T11:22:44.618Z,1005.96
2018-08-10T11:23:44.830Z,1005.96
2018-08-10T11:24:44.646Z,1005.97
2018-08-10T11:25:44.790Z,1005.94
2018-08-10T11:26:44.675Z,1005.91
2018-08-10T11:27:44.701Z,1005.93
2018-08-10T11:28:44.762Z,1005.89
2018-08-10T11:29:44.719Z,1005.97
2018-08-10T11:30:44.733Z,1005.97
2018-08-10T11:31:44.749Z,1005.97
2018-08-10T11:32:46.687Z,1005.97
2018-08-10T11:33:44.781Z,1005.95
2018-08-10T11:34:44.791Z,1005.97
2018-08-10T11:35:44.806Z,1006.03
2018-08-10T11:36:44.813Z,1005.98
2018-08-10T11:37:44.825Z,1005.95
2018-08-10T11:38:44.840Z,1006.02
2018-08-10T11:39:44.854Z,1006.02
2018-08-10T11:40:44.860Z,1005.99
2018-08-10T11:41:44.871Z,1005.95
2018-08-10T11:42:44.888Z,1006.02
2018-08-10T11:43:44.893Z,1006.04
2018-08-10T11:44:44.902Z,1006.04
2018-08-10T11:45:44.943Z,1005.99
2018-08-10T11:46:44.929Z,1006.04
2018-08-10T11:47:44.932Z,1006.08
2018-08-10T11:48:44.963Z,1006.08
2018-08-10T11:49:44.949Z,1006.05
2018-08-10T11:50:45.131Z,1006.04
2018-08-10T11:51:45.055Z,1006.02
2018-08-10T11:52:44.975Z,1006.07
2018-08-10T11:53:44.985Z,1006.06
2018-08-10T11:54:44.996Z,1006.14
2018-08-10T11:55:45.268Z,1006.12
2018-08-10T11:56:45.012Z,1006.10
2018-08-10T11:57:45.018Z,1006.13
2018-08-10T11:58:45.027Z,1006.12
2018-08-10T11:59:45.044Z,1006.12
2018-08-10T12:00:45.044Z,1006.05
2018-08-10T12:01:45.058Z,1006.07
2018-08-10T12:02:45.133Z,1006.14
2018-08-10T12:03:45.065Z,1006.12
2018-08-10T12:04:45.087Z,1006.14
2018-08-10T12:05:45.097Z,1006.13
2018-08-10T12:06:45.095Z,1006.11
2018-08-10T12:07:45.106Z,1006.11